createdAt,value
2018-10-21T00:01:22.422Z,20.20
2018-10-21T00:03:50.916Z,16.85
2018-10-21T00:06:19.235Z,17.35
2018-10-21T00:08:47.544Z,14.98
2018-10-21T00:11:17.065Z,24.27
2018-10-21T00:13:45.370Z,17.32
2018-10-21T00:16:13.706Z,21.60
2018-10-21T00:18:42.009Z,35.48
2018-10-21T00:21:10.368Z,26.20
2018-10-21T00:23:39.558Z,24.52
2018-10-21T00:26:07.839Z,28.60
2018-10-21T00:28:36.158Z,19.65
2018-10-21T00:31:04.554Z,23.05
2018-10-21T00:33:32.884Z,31.50
2018-10-21T00:36:01.174Z,27.17
2018-10-21T00:38:29.484Z,23.87
2018-10-21T00:40:57.808Z,21.90
2018-10-21T00:43:26.802Z,22.22
2018-10-21T00:45:55.102Z,25.25
2018-10-21T00:48:23.476Z,31.00
2018-10-21T00:50:51.736Z,25.80
2018-10-21T00:53:20.072Z,23.45
2018-10-21T00:55:48.380Z,22.52
2018-10-21T00:58:16.718Z,20.72
2018-10-21T01:00:45.032Z,22.30
2018-10-21T01:03:13.434Z,20.08
2018-10-21T01:05:41.661Z,27.13
2018-10-21T01:08:10.625Z,23.07
2018-10-21T01:10:38.924Z,21.33
2018-10-21T01:13:07.612Z,20.70
2018-10-21T01:15:35.893Z,16.80
2018-10-21T01:18:04.258Z,23.65
2018-10-21T01:20:32.557Z,42.62
2018-10-21T01:23:00.905Z,22.77
2018-10-21T01:25:29.241Z,25.72
2018-10-21T01:27:57.542Z,21.57
2018-10-21T01:30:25.857Z,23.20
2018-10-21T01:32:54.227Z,24.40
2018-10-21T01:35:22.504Z,28.50
2018-10-21T01:37:50.907Z,20.90
2018-10-21T01:40:31.812Z,26.12
2018-10-21T01:43:00.284Z,28.40
2018-10-21T01:45:28.601Z,31.93
2018-10-21T01:47:58.360Z,28.17
2018-10-21T01:50:26.737Z,30.15
2018-10-21T01:52:56.160Z,25.88
2018-10-21T01:55:24.652Z,27.90
2018-10-21T01:57:54.101Z,24.40
2018-10-21T02:00:22.764Z,31.97
2018-10-21T02:02:51.072Z,27.55
2018-10-21T02:05:19.396Z,33.45
2018-10-21T02:07:48.613Z,24.70
2018-10-21T02:10:16.953Z,23.92
2018-10-21T02:12:45.255Z,26.95
2018-10-21T02:15:14.525Z,31.68
2018-10-21T02:17:42.910Z,32.75
2018-10-21T02:20:12.417Z,25.05
2018-10-21T02:22:41.485Z,26.50
2018-10-21T02:25:09.817Z,28.98
2018-10-21T02:27:38.885Z,19.87
2018-10-21T02:30:10.208Z,21.42
2018-10-21T02:32:38.573Z,29.42
2018-10-21T02:35:07.622Z,21.65
2018-10-21T02:37:36.313Z,19.40
2018-10-21T02:40:05.095Z,22.48
2018-10-21T02:42:33.395Z,20.95
2018-10-21T02:45:01.750Z,20.82
2018-10-21T02:47:30.062Z,29.60
2018-10-21T02:49:58.712Z,20.48
2018-10-21T02:52:27.018Z,20.12
2018-10-21T02:54:55.345Z,18.92
2018-10-21T02:57:23.677Z,27.05
2018-10-21T02:59:52.046Z,24.47
2018-10-21T03:02:20.373Z,24.30
2018-10-21T03:04:48.685Z,20.52
2018-10-21T03:07:16.977Z,25.17
2018-10-21T03:09:45.277Z,18.57
2018-10-21T03:12:13.561Z,20.02
2018-10-21T03:14:41.901Z,19.30
2018-10-21T03:17:10.197Z,27.05
2018-10-21T03:19:38.545Z,29.57
2018-10-21T03:22:06.893Z,33.78
2018-10-21T03:24:35.200Z,38.10
2018-10-21T03:27:03.534Z,36.53
2018-10-21T03:29:31.812Z,31.93
2018-10-21T03:32:00.105Z,41.00
2018-10-21T03:34:28.877Z,42.88
2018-10-21T03:36:57.212Z,33.55
2018-10-21T03:39:25.517Z,44.35
2018-10-21T03:41:53.854Z,35.78
2018-10-21T03:44:22.157Z,40.98
2018-10-21T03:46:51.181Z,43.60
2018-10-21T03:49:19.481Z,39.33
2018-10-21T03:51:47.779Z,34.78
2018-10-21T03:54:16.090Z,40.03
2018-10-21T03:56:44.454Z,45.55
2018-10-21T03:59:12.764Z,34.55
2018-10-21T04:01:41.070Z,37.13
2018-10-21T04:04:09.586Z,35.60
2018-10-21T04:06:37.860Z,38.17
2018-10-21T04:09:07.484Z,40.30
2018-10-21T04:11:35.786Z,44.23
2018-10-21T04:14:04.460Z,42.73
2018-10-21T04:16:32.751Z,39.38
2018-10-21T04:19:01.060Z,46.50
2018-10-21T04:21:29.368Z,43.90
2018-10-21T04:23:58.037Z,41.40
2018-10-21T04:26:26.440Z,41.60
2018-10-21T04:28:55.794Z,44.65
2018-10-21T04:31:24.275Z,41.98
2018-10-21T04:33:52.641Z,53.45
2018-10-21T04:36:27.413Z,42.35
2018-10-21T04:40:09.002Z,43.45
2018-10-21T04:42:37.308Z,49.30
2018-10-21T04:45:06.398Z,47.23
2018-10-21T04:47:34.789Z,41.20
2018-10-21T04:50:03.388Z,53.63
2018-10-21T04:52:32.601Z,49.05
2018-10-21T04:55:06.738Z,63.15
2018-10-21T04:57:35.806Z,48.65
2018-10-21T05:00:04.958Z,46.15
2018-10-21T05:02:33.748Z,60.03
2018-10-21T05:05:02.073Z,48.13
2018-10-21T05:07:30.469Z,47.75
2018-10-21T05:09:59.239Z,48.55
2018-10-21T05:12:27.516Z,47.60
2018-10-21T05:14:55.814Z,55.60
2018-10-21T05:17:24.112Z,44.33
2018-10-21T05:19:52.396Z,46.58
2018-10-21T05:22:20.694Z,49.03
2018-10-21T05:24:49.008Z,49.95
2018-10-21T05:27:17.336Z,43.52
2018-10-21T05:29:45.633Z,42.17
2018-10-21T05:32:14.549Z,41.95
2018-10-21T05:34:42.844Z,40.63
2018-10-21T05:37:11.148Z,42.15
2018-10-21T05:39:39.466Z,48.13
2018-10-21T05:42:07.763Z,47.60
2018-10-21T05:44:36.702Z,51.13
2018-10-21T05:47:05.362Z,46.68
2018-10-21T05:49:33.671Z,49.55
2018-10-21T05:52:02.019Z,41.40
2018-10-21T05:54:30.317Z,52.75
2018-10-21T05:56:59.571Z,41.48
2018-10-21T05:59:28.552Z,44.03
2018-10-21T06:01:56.876Z,42.67
2018-10-21T06:04:25.180Z,35.80
2018-10-21T06:06:53.452Z,33.53
2018-10-21T06:09:22.446Z,34.38
2018-10-21T06:11:50.749Z,33.88
2018-10-21T06:14:19.060Z,35.98
2018-10-21T06:16:51.708Z,35.08
2018-10-21T06:19:28.364Z,36.80
2018-10-21T06:21:56.711Z,39.70
2018-10-21T06:24:25.257Z,32.10
2018-10-21T06:26:54.257Z,32.17
2018-10-21T06:29:22.625Z,41.68
2018-10-21T06:31:50.927Z,36.00
2018-10-21T06:34:19.956Z,41.50
2018-10-21T06:36:48.342Z,36.38
2018-10-21T06:39:16.630Z,34.50
2018-10-21T06:41:44.880Z,41.08
2018-10-21T06:44:13.197Z,31.00
2018-10-21T06:46:41.496Z,35.43
2018-10-21T06:49:09.852Z,38.80
2018-10-21T06:51:38.112Z,38.73
2018-10-21T06:54:06.472Z,43.87
2018-10-21T06:56:35.062Z,42.85
2018-10-21T06:59:03.153Z,44.53
2018-10-21T07:01:31.645Z,40.70
2018-10-21T07:04:00.006Z,47.05
2018-10-21T07:06:29.048Z,50.55
2018-10-21T07:09:11.886Z,44.60
2018-10-21T07:11:40.409Z,53.87
2018-10-21T07:14:08.932Z,41.20
2018-10-21T07:16:38.284Z,39.95
2018-10-21T07:19:06.457Z,48.02
2018-10-21T07:21:34.772Z,38.35
2018-10-21T07:24:03.089Z,44.88
2018-10-21T07:26:31.510Z,41.70
2018-10-21T07:29:01.030Z,42.23
2018-10-21T07:31:29.845Z,51.18
2018-10-21T07:33:58.865Z,42.98
2018-10-21T07:36:27.382Z,46.33
2018-10-21T07:38:55.748Z,43.02
2018-10-21T07:41:25.016Z,53.78
2018-10-21T07:43:53.376Z,52.27
2018-10-21T07:46:21.732Z,43.85
2018-10-21T07:48:51.212Z,60.88
2018-10-21T07:51:19.544Z,46.37
2018-10-21T07:53:48.977Z,45.80
2018-10-21T07:56:17.764Z,49.18
2018-10-21T07:58:46.073Z,65.55
2018-10-21T08:01:15.132Z,49.67
2018-10-21T08:03:44.122Z,53.60
2018-10-21T08:06:25.542Z,51.83
2018-10-21T08:08:53.904Z,43.60
2018-10-21T08:11:23.264Z,48.25
2018-10-21T08:13:51.584Z,59.70
2018-10-21T08:16:20.749Z,51.20
2018-10-21T08:18:49.533Z,51.58
2018-10-21T08:21:17.912Z,51.28
2018-10-21T08:23:46.443Z,69.67
2018-10-21T08:26:15.049Z,56.35
2018-10-21T08:28:43.365Z,53.65
2018-10-21T08:31:11.747Z,59.85
2018-10-21T08:33:40.065Z,45.20
2018-10-21T08:36:08.593Z,48.70
2018-10-21T08:38:37.053Z,43.98
2018-10-21T08:41:05.536Z,55.25
2018-10-21T08:43:33.859Z,51.25
2018-10-21T08:46:02.551Z,38.63
2018-10-21T08:48:31.065Z,47.80
2018-10-21T08:50:59.391Z,45.30
2018-10-21T08:53:28.350Z,47.20
2018-10-21T08:55:56.713Z,51.77
2018-10-21T08:58:25.043Z,47.48
2018-10-21T09:00:53.367Z,44.50
2018-10-21T09:03:21.680Z,42.13
2018-10-21T09:05:49.981Z,43.58
2018-10-21T09:08:18.315Z,39.70
2018-10-21T09:10:46.867Z,39.65
2018-10-21T09:13:15.473Z,38.67
2018-10-21T09:15:44.862Z,45.40
2018-10-21T09:18:13.218Z,34.30
2018-10-21T09:20:41.512Z,37.23
2018-10-21T09:23:09.856Z,32.58
2018-10-21T09:25:38.173Z,32.65
2018-10-21T09:28:07.187Z,32.45
2018-10-21T09:30:35.477Z,36.15
2018-10-21T09:33:04.446Z,29.85
2018-10-21T09:35:33.914Z,30.37
2018-10-21T09:38:02.245Z,31.57
2018-10-21T09:40:31.460Z,22.00
2018-10-21T09:43:01.556Z,21.50
2018-10-21T09:45:29.933Z,23.80
2018-10-21T09:47:58.318Z,27.50
2018-10-21T09:50:27.614Z,22.77
2018-10-21T09:52:56.977Z,21.50
2018-10-21T09:55:25.397Z,22.03
2018-10-21T09:57:54.314Z,24.87
2018-10-21T10:00:27.906Z,21.20
2018-10-21T10:03:03.093Z,24.27
2018-10-21T10:05:31.456Z,19.10
2018-10-21T10:07:59.781Z,22.03
2018-10-21T10:10:28.134Z,20.07
2018-10-21T10:12:56.481Z,22.43
2018-10-21T10:15:24.873Z,23.50
2018-10-21T10:17:53.285Z,21.23
2018-10-21T10:20:21.684Z,20.70
2018-10-21T10:22:50.009Z,17.07
2018-10-21T10:25:18.441Z,18.77
2018-10-21T10:27:46.650Z,17.37
2018-10-21T10:30:15.033Z,11.53
2018-10-21T10:32:43.937Z,15.53
2018-10-21T10:35:13.145Z,14.43
2018-10-21T10:37:41.656Z,13.37
2018-10-21T10:40:11.245Z,18.00
2018-10-21T10:42:39.572Z,18.60
2018-10-21T10:45:08.445Z,16.20
2018-10-21T10:47:37.196Z,12.77
2018-10-21T10:50:06.585Z,12.83
2018-10-21T10:52:34.916Z,15.97
2018-10-21T10:55:03.308Z,14.90
2018-10-21T10:57:31.712Z,9.33
2018-10-21T11:00:00.678Z,8.00
2018-10-21T11:02:28.779Z,10.13
2018-10-21T11:04:58.069Z,14.03
2018-10-21T11:07:27.460Z,13.73
2018-10-21T11:09:55.842Z,17.17
2018-10-21T11:12:24.117Z,13.37
2018-10-21T11:14:52.424Z,13.30
2018-10-21T11:17:21.983Z,12.43
2018-10-21T11:19:51.314Z,12.43
2018-10-21T11:22:19.633Z,9.67
2018-10-21T11:24:49.349Z,12.40
2018-10-21T11:27:18.413Z,11.10
2018-10-21T11:29:47.984Z,9.73
2018-10-21T11:32:18.249Z,10.23
2018-10-21T11:34:46.645Z,7.23
2018-10-21T11:37:15.043Z,11.37
2018-10-21T11:39:43.280Z,13.93
2018-10-21T11:42:11.638Z,11.33
2018-10-21T11:44:39.990Z,11.73
2018-10-21T11:47:08.629Z,7.37
2018-10-21T11:49:36.934Z,7.40
2018-10-21T11:52:05.406Z,11.00
2018-10-21T11:54:33.710Z,8.00
2018-10-21T11:57:02.017Z,12.23
2018-10-21T11:59:30.358Z,9.43
2018-10-21T12:01:58.704Z,11.00
2018-10-21T12:04:27.012Z,5.03
2018-10-21T12:06:55.380Z,6.77
2018-10-21T12:09:23.669Z,6.47
2018-10-21T12:11:51.988Z,12.73
2018-10-21T12:14:20.277Z,5.60
2018-10-21T12:16:48.585Z,7.20
2018-10-21T12:19:17.827Z,16.00
2018-10-21T12:21:46.069Z,9.20
2018-10-21T12:24:14.408Z,8.33
2018-10-21T12:26:42.701Z,5.30
2018-10-21T12:29:11.037Z,7.57
2018-10-21T12:31:39.868Z,4.13
2018-10-21T12:34:08.435Z,7.37
2018-10-21T12:36:36.709Z,5.63
2018-10-21T12:39:08.537Z,5.93
2018-10-21T12:41:36.823Z,7.53
2018-10-21T12:44:05.628Z,6.90
2018-10-21T12:46:33.929Z,7.97
2018-10-21T12:49:02.484Z,5.80
2018-10-21T12:51:30.777Z,3.47
2018-10-21T12:53:59.644Z,3.73
2018-10-21T12:56:29.852Z,9.63
2018-10-21T12:58:58.148Z,13.53
2018-10-21T13:01:27.290Z,6.37
2018-10-21T13:03:55.614Z,4.50
2018-10-21T13:06:23.963Z,6.67
2018-10-21T13:08:52.312Z,5.03
2018-10-21T13:11:20.597Z,8.60
2018-10-21T13:13:49.031Z,6.90
2018-10-21T13:16:17.438Z,6.03
2018-10-21T13:18:45.693Z,6.20
2018-10-21T13:21:14.009Z,5.80
2018-10-21T13:23:42.488Z,9.17
2018-10-21T13:26:10.837Z,4.30
2018-10-21T13:28:39.149Z,4.37
2018-10-21T13:31:07.540Z,4.40
2018-10-21T13:33:35.801Z,5.87
2018-10-21T13:36:05.184Z,6.27
2018-10-21T13:38:34.131Z,5.70
2018-10-21T13:41:02.413Z,8.40
2018-10-21T13:43:30.719Z,5.13
2018-10-21T13:45:59.059Z,4.03
2018-10-21T13:48:27.330Z,4.53
2018-10-21T13:50:55.623Z,4.87
2018-10-21T13:53:23.983Z,6.23
2018-10-21T13:55:52.274Z,9.90
2018-10-21T13:58:20.586Z,8.23
2018-10-21T14:00:48.973Z,4.27
2018-10-21T14:03:17.230Z,6.70
2018-10-21T14:05:45.540Z,4.57
2018-10-21T14:08:13.857Z,9.43
2018-10-21T14:10:42.186Z,6.10
2018-10-21T14:13:10.525Z,4.67
2018-10-21T14:15:38.860Z,3.00
2018-10-21T14:18:07.168Z,17.30
2018-10-21T14:20:35.569Z,4.53
2018-10-21T14:23:03.903Z,3.33
2018-10-21T14:25:32.210Z,3.87
2018-10-21T14:28:00.732Z,2.23
2018-10-21T14:30:29.642Z,8.43
2018-10-21T14:32:58.003Z,5.87
2018-10-21T14:35:26.647Z,3.23
2018-10-21T14:37:55.416Z,4.07
2018-10-21T14:40:23.772Z,1.50
2018-10-21T14:42:52.214Z,4.90
2018-10-21T14:45:20.864Z,5.40
2018-10-21T14:47:49.152Z,3.77
2018-10-21T14:50:17.457Z,3.80
2018-10-21T14:52:45.765Z,2.13
2018-10-21T14:55:14.103Z,9.57
2018-10-21T14:57:42.452Z,5.67
2018-10-21T15:00:12.259Z,4.47
2018-10-21T15:02:40.456Z,3.63
2018-10-21T15:05:10.689Z,6.37
2018-10-21T15:07:39.810Z,5.27
2018-10-21T15:10:11.053Z,5.07
2018-10-21T15:12:39.475Z,6.37
2018-10-21T15:15:09.432Z,4.10
2018-10-21T15:17:37.972Z,4.30
2018-10-21T15:20:07.168Z,4.83
2018-10-21T15:22:35.437Z,2.03
2018-10-21T15:25:03.841Z,5.70
2018-10-21T15:27:32.365Z,9.83
2018-10-21T15:30:01.365Z,6.93
2018-10-21T15:32:29.716Z,5.50
2018-10-21T15:34:58.026Z,6.60
2018-10-21T15:37:26.320Z,4.87
2018-10-21T15:39:55.056Z,3.03
2018-10-21T15:42:23.349Z,4.93
2018-10-21T15:44:52.725Z,5.07
2018-10-21T15:47:21.517Z,10.70
2018-10-21T15:49:50.800Z,5.30
2018-10-21T15:52:20.367Z,6.80
2018-10-21T15:54:49.784Z,3.23
2018-10-21T15:57:18.899Z,2.70
2018-10-21T15:59:47.292Z,2.77
2018-10-21T16:02:16.657Z,3.20
2018-10-21T16:04:44.925Z,6.53
2018-10-21T16:07:13.385Z,8.60
2018-10-21T16:09:41.701Z,9.80
2018-10-21T16:12:10.693Z,8.60
2018-10-21T16:14:39.015Z,3.37
2018-10-21T16:17:07.362Z,4.40
2018-10-21T16:19:35.664Z,6.20
2018-10-21T16:22:04.003Z,5.03
2018-10-21T16:24:47.389Z,5.17
2018-10-21T16:27:16.204Z,7.67
2018-10-21T16:29:44.745Z,7.80
2018-10-21T16:32:13.669Z,7.90
2018-10-21T16:34:42.393Z,4.33
2018-10-21T16:37:10.743Z,11.10
2018-10-21T16:39:39.083Z,9.63
2018-10-21T16:42:08.026Z,8.30
2018-10-21T16:44:36.331Z,7.33
2018-10-21T16:47:04.771Z,6.97
2018-10-21T16:49:33.070Z,8.87
2018-10-21T16:52:01.361Z,8.83
2018-10-21T16:54:29.722Z,6.57
2018-10-21T16:56:58.161Z,7.63
2018-10-21T16:59:26.559Z,13.10
2018-10-21T17:01:54.822Z,10.93
2018-10-21T17:04:23.133Z,11.27
2018-10-21T17:06:51.445Z,8.93
2018-10-21T17:09:19.871Z,11.50
2018-10-21T17:11:48.091Z,13.03
2018-10-21T17:14:17.365Z,9.93
2018-10-21T17:16:46.517Z,13.40
2018-10-21T17:19:14.844Z,6.83
2018-10-21T17:21:43.164Z,7.90
2018-10-21T17:24:11.548Z,12.73
2018-10-21T17:26:39.845Z,10.60
2018-10-21T17:29:08.163Z,17.00
2018-10-21T17:31:36.455Z,7.23
2018-10-21T17:34:04.997Z,5.10
2018-10-21T17:36:33.258Z,5.23
2018-10-21T17:39:03.395Z,9.03
2018-10-21T17:41:31.726Z,12.53
2018-10-21T17:44:00.037Z,14.73
2018-10-21T17:46:28.374Z,13.67
2018-10-21T17:48:56.884Z,15.13
2018-10-21T17:51:25.125Z,13.77
2018-10-21T17:53:53.448Z,18.50
2018-10-21T17:56:21.800Z,13.00
2018-10-21T17:58:50.185Z,11.80
2018-10-21T18:01:18.524Z,10.30
2018-10-21T18:03:46.884Z,10.53
2018-10-21T18:06:15.177Z,16.83
2018-10-21T18:08:43.500Z,13.30
2018-10-21T18:11:11.887Z,11.63
2018-10-21T18:13:40.207Z,8.63
2018-10-21T18:16:08.557Z,10.53
2018-10-21T18:18:36.841Z,14.83
2018-10-21T18:21:05.332Z,12.83
2018-10-21T18:23:33.679Z,12.87
2018-10-21T18:26:02.127Z,25.13
2018-10-21T18:28:30.433Z,10.20
2018-10-21T18:30:59.447Z,9.90
2018-10-21T18:33:27.783Z,10.73
2018-10-21T18:35:57.046Z,9.73
2018-10-21T18:38:25.838Z,10.90
2018-10-21T18:40:55.596Z,9.77
2018-10-21T18:43:23.891Z,16.27
2018-10-21T18:45:53.216Z,12.67
2018-10-21T18:48:22.513Z,10.33
2018-10-21T18:50:50.840Z,15.80
2018-10-21T18:53:20.033Z,13.17
2018-10-21T18:55:48.465Z,17.55
2018-10-21T18:58:16.826Z,12.57
2018-10-21T19:00:45.139Z,20.88
2018-10-21T19:03:13.464Z,15.78
2018-10-21T19:05:47.090Z,11.97
2018-10-21T19:08:15.464Z,17.80
2018-10-21T19:10:43.856Z,16.93
2018-10-21T19:13:12.730Z,9.65
2018-10-21T19:15:41.032Z,14.80
2018-10-21T19:18:09.370Z,14.47
2018-10-21T19:20:37.680Z,14.70
2018-10-21T19:23:06.284Z,15.18
2018-10-21T19:25:34.592Z,10.38
2018-10-21T19:28:03.211Z,18.30
2018-10-21T19:30:32.294Z,11.90
2018-10-21T19:33:00.630Z,18.23
2018-10-21T19:35:28.981Z,19.17
2018-10-21T19:37:57.329Z,15.60
2018-10-21T19:40:25.646Z,14.23
2018-10-21T19:42:54.532Z,18.15
2018-10-21T19:45:22.886Z,16.37
2018-10-21T19:47:51.326Z,16.65
2018-10-21T19:50:19.697Z,13.50
2018-10-21T19:52:48.007Z,19.57
2018-10-21T19:55:16.501Z,15.00
2018-10-21T19:57:44.762Z,13.65
2018-10-21T20:00:15.289Z,16.85
2018-10-21T20:02:44.090Z,19.40
2018-10-21T20:05:13.316Z,17.15
2018-10-21T20:07:41.745Z,13.00
2018-10-21T20:10:12.389Z,13.00
2018-10-21T20:12:40.689Z,13.78
2018-10-21T20:15:10.098Z,10.93
2018-10-21T20:17:38.749Z,12.60
2018-10-21T20:20:07.703Z,13.13
2018-10-21T20:22:36.125Z,12.37
2018-10-21T20:25:05.937Z,20.40
2018-10-21T20:27:34.297Z,9.93
2018-10-21T20:30:02.847Z,19.10
2018-10-21T20:32:32.084Z,11.90
2018-10-21T20:35:00.912Z,17.27
2018-10-21T20:37:30.671Z,14.35
2018-10-21T20:39:59.567Z,13.65
2018-10-21T20:42:27.895Z,10.50
2018-10-21T20:44:57.121Z,12.20
2018-10-21T20:47:25.990Z,11.38
2018-10-21T20:49:54.433Z,18.80
2018-10-21T20:52:23.241Z,11.65
2018-10-21T20:54:51.612Z,11.00
2018-10-21T20:57:19.944Z,9.03
2018-10-21T20:59:48.618Z,13.03
2018-10-21T21:02:17.156Z,11.50
2018-10-21T21:04:46.608Z,10.93
2018-10-21T21:07:15.605Z,14.35
2018-10-21T21:09:44.132Z,12.75
2018-10-21T21:12:12.519Z,10.40
2018-10-21T21:14:40.798Z,13.13
2018-10-21T21:17:11.789Z,17.10
2018-10-21T21:19:44.981Z,25.32
2018-10-21T21:22:15.324Z,21.00
2018-10-21T21:24:43.637Z,11.40
2018-10-21T21:27:12.899Z,16.35
2018-10-21T21:29:42.178Z,20.92
2018-10-21T21:32:11.672Z,17.23
2018-10-21T21:34:41.162Z,14.80
2018-10-21T21:37:10.179Z,23.32
2018-10-21T21:39:40.390Z,14.70
2018-10-21T21:42:08.954Z,16.85
2018-10-21T21:44:37.242Z,10.95
2018-10-21T21:47:06.078Z,13.93
2018-10-21T21:49:34.473Z,15.38
2018-10-21T21:52:02.951Z,16.48
2018-10-21T21:54:31.290Z,10.93
2018-10-21T21:57:00.501Z,14.95
2018-10-21T21:59:29.670Z,15.53
2018-10-21T22:01:58.144Z,12.75
2018-10-21T22:04:26.501Z,10.85
2018-10-21T22:06:54.833Z,14.98
2018-10-21T22:09:23.709Z,21.42
2018-10-21T22:11:52.053Z,22.02
2018-10-21T22:14:20.353Z,17.57
2018-10-21T22:16:48.652Z,17.35
2018-10-21T22:19:16.944Z,13.70
2018-10-21T22:21:45.274Z,15.32
2018-10-21T22:24:13.613Z,17.42
2018-10-21T22:26:41.925Z,17.20
2018-10-21T22:29:10.366Z,14.20
2018-10-21T22:31:38.701Z,22.13
2018-10-21T22:34:07.105Z,14.58
2018-10-21T22:36:35.613Z,12.85
2018-10-21T22:39:04.916Z,15.93
2018-10-21T22:41:33.416Z,13.13
2018-10-21T22:44:01.885Z,15.00
2018-10-21T22:46:30.404Z,16.62
2018-10-21T22:48:58.773Z,15.83
2018-10-21T22:51:27.109Z,11.80
2018-10-21T22:53:55.482Z,11.78
2018-10-21T22:56:23.839Z,10.98
2018-10-21T22:58:52.235Z,14.03
2018-10-21T23:01:20.550Z,14.28
2018-10-21T23:03:49.046Z,10.82
2018-10-21T23:06:17.400Z,13.08
2018-10-21T23:08:45.650Z,20.92
2018-10-21T23:11:13.993Z,8.73
2018-10-21T23:13:42.284Z,14.50
2018-10-21T23:16:10.683Z,18.80
2018-10-21T23:18:39.023Z,13.60
2018-10-21T23:21:07.255Z,20.62
2018-10-21T23:23:35.626Z,13.15
2018-10-21T23:26:03.956Z,10.60
2018-10-21T23:28:32.289Z,14.78
2018-10-21T23:31:00.590Z,12.82
2018-10-21T23:33:28.911Z,13.25
2018-10-21T23:35:57.323Z,16.45
2018-10-21T23:38:25.649Z,10.70
2018-10-21T23:40:53.956Z,11.53
2018-10-21T23:43:22.266Z,12.68
2018-10-21T23:45:50.584Z,15.30
2018-10-21T23:48:18.972Z,12.90
2018-10-21T23:50:47.484Z,11.55
2018-10-21T23:53:15.779Z,15.75
2018-10-21T23:55:44.079Z,14.93
2018-10-21T23:58:12.455Z,14.63
